createdAt,value
2023-02-18T00:00:14.690Z,8.08
2023-02-18T00:03:05.360Z,8.02
2023-02-18T00:05:36.474Z,7.97
2023-02-18T00:08:05.930Z,7.93
2023-02-18T00:10:37.336Z,7.86
2023-02-18T00:13:08.806Z,7.84
2023-02-18T00:15:40.500Z,7.79
2023-02-18T00:18:11.645Z,7.74
2023-02-18T00:20:42.970Z,7.67
2023-02-18T00:23:14.298Z,7.60
2023-02-18T00:25:45.603Z,7.53
2023-02-18T00:28:17.106Z,7.47
2023-02-18T00:30:48.839Z,7.40
2023-02-18T00:33:19.779Z,7.34
2023-02-18T00:35:49.329Z,7.29
2023-02-18T00:38:20.426Z,7.22
2023-02-18T00:40:51.697Z,7.19
2023-02-18T00:43:22.917Z,7.18
2023-02-18T00:45:52.344Z,7.16
2023-02-18T00:48:23.618Z,7.13
2023-02-18T00:50:54.918Z,7.10
2023-02-18T00:53:25.946Z,7.05
2023-02-18T00:55:57.366Z,7.01
2023-02-18T00:58:29.089Z,6.98
2023-02-18T01:01:00.273Z,6.94
2023-02-18T01:03:29.758Z,6.93
2023-02-18T01:06:01.696Z,6.92
2023-02-18T01:08:32.854Z,6.93
2023-02-18T01:11:04.003Z,6.93
2023-02-18T01:13:35.738Z,6.90
2023-02-18T01:16:07.828Z,6.89
2023-02-18T01:18:40.129Z,6.90
2023-02-18T01:21:11.765Z,6.91
2023-02-18T01:23:43.810Z,6.91
2023-02-18T01:26:14.947Z,6.92
2023-02-18T01:28:46.057Z,6.90
2023-02-18T01:31:17.133Z,6.88
2023-02-18T01:33:48.307Z,6.85
2023-02-18T01:36:19.840Z,6.87
2023-02-18T01:38:50.870Z,6.86
2023-02-18T01:41:20.315Z,6.84
2023-02-18T01:44:05.115Z,6.83
2023-02-18T01:46:37.176Z,6.83
2023-02-18T01:49:07.053Z,6.85
2023-02-18T01:51:39.120Z,6.86
2023-02-18T01:54:15.780Z,6.84
2023-02-18T01:56:51.106Z,6.82
2023-02-18T01:59:27.758Z,6.82
2023-02-18T02:01:59.627Z,6.84
2023-02-18T02:04:30.722Z,6.86
2023-02-18T02:07:01.748Z,6.89
2023-02-18T02:09:34.032Z,6.92
2023-02-18T02:12:21.835Z,6.95
2023-02-18T02:15:23.097Z,6.97
2023-02-18T02:18:06.313Z,7.02
2023-02-18T02:20:59.160Z,7.04
2023-02-18T02:24:13.384Z,7.09
2023-02-18T02:27:11.548Z,7.13
2023-02-18T02:30:14.642Z,7.16
2023-02-18T02:33:13.503Z,7.17
2023-02-18T02:35:51.291Z,7.19
2023-02-18T02:38:29.160Z,7.21
2023-02-18T02:41:10.707Z,7.21
2023-02-18T02:43:54.227Z,7.21
2023-02-18T02:46:31.738Z,7.21
2023-02-18T02:49:14.065Z,7.22
2023-02-18T02:51:53.021Z,7.22
2023-02-18T02:54:26.981Z,7.22
2023-02-18T02:57:10.562Z,7.22
2023-02-18T02:59:41.572Z,7.21
2023-02-18T03:02:27.486Z,7.20
2023-02-18T03:05:16.575Z,7.19
2023-02-18T03:08:09.152Z,7.18
2023-02-18T03:10:52.275Z,7.17
2023-02-18T03:13:33.408Z,7.16
2023-02-18T03:16:15.838Z,7.15
2023-02-18T03:18:52.983Z,7.15
2023-02-18T03:21:28.721Z,7.14
2023-02-18T03:24:03.995Z,7.13
2023-02-18T03:26:41.989Z,7.12
2023-02-18T03:29:15.477Z,7.11
2023-02-18T03:31:50.391Z,7.09
2023-02-18T03:34:26.260Z,7.08
2023-02-18T03:36:59.267Z,7.08
2023-02-18T03:39:33.812Z,7.07
2023-02-18T03:42:05.032Z,7.07
2023-02-18T03:44:36.488Z,7.08
2023-02-18T03:47:06.158Z,7.08
2023-02-18T03:49:37.167Z,7.06
2023-02-18T03:52:09.379Z,7.06
2023-02-18T03:54:40.367Z,7.07
2023-02-18T03:57:09.810Z,7.08
2023-02-18T03:59:40.923Z,7.10
2023-02-18T04:02:10.352Z,7.14
2023-02-18T04:04:41.361Z,7.12
2023-02-18T04:07:12.637Z,7.11
2023-02-18T04:09:43.608Z,7.11
2023-02-18T04:12:14.823Z,7.09
2023-02-18T04:14:46.195Z,7.09
2023-02-18T04:17:17.333Z,7.10
2023-02-18T04:19:48.901Z,7.07
2023-02-18T04:22:20.073Z,7.05
2023-02-18T04:24:49.506Z,7.03
2023-02-18T04:27:20.525Z,7.03
2023-02-18T04:29:51.931Z,7.03
2023-02-18T04:32:23.049Z,7.01
2023-02-18T04:34:52.474Z,6.98
2023-02-18T04:37:23.899Z,6.93
2023-02-18T04:39:53.243Z,6.91
2023-02-18T04:42:24.420Z,6.88
2023-02-18T04:44:53.940Z,6.87
2023-02-18T04:47:25.106Z,6.82
2023-02-18T04:49:56.263Z,6.81
2023-02-18T04:52:25.654Z,6.79
2023-02-18T04:54:56.775Z,6.76
2023-02-18T04:57:27.773Z,6.72
2023-02-18T04:59:58.665Z,6.68
2023-02-18T05:02:28.188Z,6.66
2023-02-18T05:04:59.232Z,6.65
2023-02-18T05:07:28.747Z,6.63
2023-02-18T05:09:59.883Z,6.60
2023-02-18T05:12:30.892Z,6.58
2023-02-18T05:15:00.273Z,6.57
2023-02-18T05:17:32.007Z,6.53
2023-02-18T05:20:04.081Z,6.52
2023-02-18T05:22:35.209Z,6.49
2023-02-18T05:25:07.953Z,6.49
2023-02-18T05:27:38.982Z,6.47
2023-02-18T05:30:09.473Z,6.44
2023-02-18T05:32:40.773Z,6.41
2023-02-18T05:35:12.210Z,6.37
2023-02-18T05:37:43.375Z,6.35
2023-02-18T05:40:15.353Z,6.32
2023-02-18T05:42:46.358Z,6.29
2023-02-18T05:45:17.199Z,6.28
2023-02-18T05:47:46.619Z,6.26
2023-02-18T05:50:17.880Z,6.24
2023-02-18T05:52:48.986Z,6.21
2023-02-18T05:55:18.569Z,6.18
2023-02-18T05:57:49.449Z,6.14
2023-02-18T06:00:21.167Z,6.12
2023-02-18T06:02:52.281Z,6.11
2023-02-18T06:05:21.960Z,6.10
2023-02-18T06:07:54.745Z,6.07
2023-02-18T06:10:26.912Z,6.04
2023-02-18T06:12:56.274Z,6.00
2023-02-18T06:15:27.182Z,5.98
2023-02-18T06:17:58.316Z,5.99
2023-02-18T06:20:27.735Z,5.99
2023-02-18T06:22:59.478Z,5.97
2023-02-18T06:25:30.550Z,5.98
2023-02-18T06:27:59.924Z,5.99
2023-02-18T06:30:31.177Z,5.98
2023-02-18T06:33:04.374Z,6.01
2023-02-18T06:35:36.240Z,6.04
2023-02-18T06:38:07.860Z,6.06
2023-02-18T06:40:38.917Z,6.08
2023-02-18T06:43:09.739Z,6.14
2023-02-18T06:45:41.682Z,6.18
2023-02-18T06:48:12.820Z,6.22
2023-02-18T06:50:44.661Z,6.28
2023-02-18T06:53:17.105Z,6.31
2023-02-18T06:55:48.086Z,6.35
2023-02-18T06:58:17.853Z,6.40
2023-02-18T07:00:49.219Z,6.43
2023-02-18T07:03:18.706Z,6.47
2023-02-18T07:05:48.545Z,6.49
2023-02-18T07:08:20.347Z,6.52
2023-02-18T07:10:51.446Z,6.58
2023-02-18T07:13:20.953Z,6.64
2023-02-18T07:15:51.852Z,6.66
2023-02-18T07:18:23.013Z,6.72
2023-02-18T07:20:54.263Z,6.76
2023-02-18T07:23:25.472Z,6.81
2023-02-18T07:26:06.249Z,6.86
2023-02-18T07:28:37.863Z,6.88
2023-02-18T07:31:09.567Z,6.91
2023-02-18T07:33:40.609Z,6.94
2023-02-18T07:36:12.997Z,6.96
2023-02-18T07:38:44.140Z,6.97
2023-02-18T07:41:20.812Z,6.98
2023-02-18T07:43:52.342Z,6.98
2023-02-18T07:46:23.298Z,6.98
2023-02-18T07:48:54.391Z,6.97
2023-02-18T07:51:25.545Z,6.96
2023-02-18T07:53:56.677Z,6.94
2023-02-18T07:56:27.663Z,6.93
2023-02-18T07:58:58.824Z,6.93
2023-02-18T08:01:29.795Z,6.93
2023-02-18T08:04:00.909Z,6.95
2023-02-18T08:06:35.174Z,6.94
2023-02-18T08:09:07.085Z,6.95
2023-02-18T08:11:38.336Z,7.00
2023-02-18T08:14:10.623Z,7.04
2023-02-18T08:16:41.435Z,7.07
2023-02-18T08:19:12.456Z,7.11
2023-02-18T08:21:43.992Z,7.14
2023-02-18T08:24:15.133Z,7.16
2023-02-18T08:26:59.937Z,7.19
2023-02-18T08:29:35.212Z,7.24
2023-02-18T08:32:09.243Z,7.30
2023-02-18T08:34:38.716Z,7.35
2023-02-18T08:37:10.231Z,7.34
2023-02-18T08:39:42.035Z,7.35
2023-02-18T08:42:13.128Z,7.35
2023-02-18T08:44:44.429Z,7.36
2023-02-18T08:48:19.863Z,7.36
2023-02-18T08:50:06.853Z,7.35
2023-02-18T08:52:37.999Z,7.34
2023-02-18T08:55:10.117Z,7.34
2023-02-18T08:57:41.097Z,7.32
2023-02-18T09:00:15.448Z,7.29
2023-02-18T09:02:47.638Z,7.27
2023-02-18T09:05:19.094Z,7.26
2023-02-18T09:07:50.210Z,7.26
2023-02-18T09:10:21.596Z,7.24
2023-02-18T09:12:52.914Z,7.23
2023-02-18T09:15:24.178Z,7.21
2023-02-18T09:17:55.338Z,7.20
2023-02-18T09:20:26.376Z,7.19
2023-02-18T09:22:55.698Z,7.18
2023-02-18T09:25:26.625Z,7.15
2023-02-18T09:27:57.827Z,7.16
2023-02-18T09:30:29.389Z,7.17
2023-02-18T09:33:00.929Z,7.16
2023-02-18T09:35:32.262Z,7.15
2023-02-18T09:38:03.712Z,7.17
2023-02-18T09:40:37.287Z,7.19
2023-02-18T09:43:14.351Z,7.19
2023-02-18T09:45:45.400Z,7.19
2023-02-18T09:48:14.671Z,7.20
2023-02-18T09:50:52.755Z,7.18
2023-02-18T09:53:24.263Z,7.14
2023-02-18T09:55:57.008Z,7.11
2023-02-18T09:58:31.313Z,7.07
2023-02-18T10:01:08.800Z,7.03
2023-02-18T10:03:40.731Z,7.01
2023-02-18T10:06:17.576Z,6.98
2023-02-18T10:08:51.935Z,6.95
2023-02-18T10:11:30.672Z,6.95
2023-02-18T10:14:04.287Z,6.96
2023-02-18T10:16:35.760Z,6.97
2023-02-18T10:19:19.076Z,6.99
2023-02-18T10:21:50.955Z,7.01
2023-02-18T10:24:29.873Z,7.06
2023-02-18T10:27:01.995Z,7.13
2023-02-18T10:29:33.135Z,7.22
2023-02-18T10:32:13.932Z,7.32
2023-02-18T10:34:49.777Z,7.39
2023-02-18T10:37:45.513Z,7.49
2023-02-18T10:40:22.727Z,7.59
2023-02-18T10:43:07.763Z,7.69
2023-02-18T10:45:49.511Z,7.78
2023-02-18T10:48:44.744Z,7.84
2023-02-18T10:51:20.841Z,7.95
2023-02-18T10:53:54.444Z,8.04
2023-02-18T10:56:48.497Z,8.11
2023-02-18T10:59:25.713Z,8.14
2023-02-18T11:02:04.080Z,8.15
2023-02-18T11:04:42.038Z,8.15
2023-02-18T11:07:17.510Z,8.16
2023-02-18T11:09:53.611Z,8.18
2023-02-18T11:12:27.142Z,8.22
2023-02-18T11:15:17.956Z,8.25
2023-02-18T11:17:50.717Z,8.22
2023-02-18T11:20:30.421Z,8.19
2023-02-18T11:23:16.048Z,8.16
2023-02-18T11:25:57.980Z,8.11
2023-02-18T11:28:48.422Z,8.08
2023-02-18T11:31:27.448Z,8.03
2023-02-18T11:34:03.245Z,7.97
2023-02-18T11:36:36.513Z,7.93
2023-02-18T11:39:19.323Z,7.90
2023-02-18T11:41:57.036Z,7.87
2023-02-18T11:44:32.301Z,7.84
2023-02-18T11:47:05.878Z,7.82
2023-02-18T11:49:37.797Z,7.81
2023-02-18T11:52:19.733Z,7.81
2023-02-18T11:55:05.321Z,7.83
2023-02-18T11:57:39.646Z,7.84
2023-02-18T12:00:24.779Z,7.84
2023-02-18T12:02:59.432Z,7.84
2023-02-18T12:05:30.652Z,7.84
2023-02-18T12:08:06.976Z,7.87
2023-02-18T12:10:42.276Z,7.91
2023-02-18T12:13:24.773Z,7.96
2023-02-18T12:16:07.923Z,7.99
2023-02-18T12:19:08.264Z,8.04
2023-02-18T12:21:52.001Z,8.10
2023-02-18T12:24:36.977Z,8.14
2023-02-18T12:27:16.412Z,8.21
2023-02-18T12:30:14.073Z,8.27
2023-02-18T12:32:52.427Z,8.31
2023-02-18T12:35:39.501Z,8.32
2023-02-18T12:38:32.116Z,8.35
2023-02-18T12:41:18.539Z,8.38
2023-02-18T12:43:59.046Z,8.38
2023-02-18T12:46:45.498Z,8.39
2023-02-18T12:49:49.943Z,8.40
2023-02-18T12:52:37.785Z,8.41
2023-02-18T12:55:36.797Z,8.42
2023-02-18T12:58:20.037Z,8.45
2023-02-18T13:01:18.097Z,8.47
2023-02-18T13:04:11.934Z,8.49
2023-02-18T13:06:59.170Z,8.52
2023-02-18T13:09:44.694Z,8.54
2023-02-18T13:12:20.670Z,8.58
2023-02-18T13:14:57.477Z,8.59
2023-02-18T13:17:34.061Z,8.61
2023-02-18T13:20:14.564Z,8.64
2023-02-18T13:22:50.060Z,8.67
2023-02-18T13:25:22.420Z,8.71
2023-02-18T13:28:10.081Z,8.74
2023-02-18T13:30:49.493Z,8.75
2023-02-18T13:33:30.329Z,8.76
2023-02-18T13:36:06.976Z,8.78
2023-02-18T13:39:04.122Z,8.79
2023-02-18T13:41:40.855Z,8.79
2023-02-18T13:44:37.890Z,8.78
2023-02-18T13:47:11.580Z,8.77
2023-02-18T13:49:43.096Z,8.76
2023-02-18T13:52:21.493Z,8.75
2023-02-18T13:54:52.897Z,8.74
2023-02-18T13:57:28.876Z,8.71
2023-02-18T14:00:04.037Z,8.70
2023-02-18T14:02:37.992Z,8.69
2023-02-18T14:05:25.091Z,8.67
2023-02-18T14:08:12.830Z,8.64
2023-02-18T14:10:44.207Z,8.63
2023-02-18T14:13:42.291Z,8.62
2023-02-18T14:16:14.149Z,8.61
2023-02-18T14:19:04.516Z,8.60
2023-02-18T14:21:46.296Z,8.59
2023-02-18T14:24:48.958Z,8.55
2023-02-18T14:27:20.187Z,8.51
2023-02-18T14:29:54.384Z,8.49
2023-02-18T14:32:26.319Z,8.49
2023-02-18T14:35:15.835Z,8.51
2023-02-18T14:38:12.444Z,8.46
2023-02-18T14:41:09.546Z,8.45
2023-02-18T14:43:56.947Z,8.44
2023-02-18T14:46:42.588Z,8.42
2023-02-18T14:49:27.815Z,8.43
2023-02-18T14:52:00.929Z,8.40
2023-02-18T14:54:33.053Z,8.42
2023-02-18T14:57:09.473Z,8.45
2023-02-18T14:59:43.335Z,8.48
2023-02-18T15:02:22.818Z,8.51
2023-02-18T15:04:54.746Z,8.48
2023-02-18T15:07:25.998Z,8.44
2023-02-18T15:09:57.563Z,8.41
2023-02-18T15:12:29.572Z,8.40
2023-02-18T15:15:05.191Z,8.40
2023-02-18T15:17:36.356Z,8.37
2023-02-18T15:20:10.040Z,8.35
2023-02-18T15:22:41.235Z,8.35
2023-02-18T15:25:14.995Z,8.37
2023-02-18T15:27:47.183Z,8.35
2023-02-18T15:30:27.144Z,8.35
2023-02-18T15:33:00.836Z,8.34
2023-02-18T15:35:34.089Z,8.32
2023-02-18T15:38:05.418Z,8.32
2023-02-18T15:40:40.517Z,8.33
2023-02-18T15:43:16.459Z,8.32
2023-02-18T15:45:48.940Z,8.30
2023-02-18T15:48:33.096Z,8.29
2023-02-18T15:51:17.427Z,8.26
2023-02-18T15:53:52.886Z,8.26
2023-02-18T15:56:32.157Z,8.28
2023-02-18T15:59:18.705Z,8.27
2023-02-18T16:01:52.943Z,8.26
2023-02-18T16:04:25.863Z,8.26
2023-02-18T16:06:57.530Z,8.24
2023-02-18T16:09:33.085Z,8.21
2023-02-18T16:12:06.640Z,8.21
2023-02-18T16:14:44.324Z,8.19
2023-02-18T16:17:22.127Z,8.18
2023-02-18T16:20:04.892Z,8.17
2023-02-18T16:22:44.661Z,8.15
2023-02-18T16:25:22.408Z,8.15
2023-02-18T16:27:56.640Z,8.12
2023-02-18T16:30:30.042Z,8.09
2023-02-18T16:33:01.671Z,8.06
2023-02-18T16:35:48.678Z,8.05
2023-02-18T16:38:23.218Z,8.03
2023-02-18T16:40:55.609Z,8.02
2023-02-18T16:43:32.674Z,8.01
2023-02-18T16:46:07.432Z,8.00
2023-02-18T16:48:41.582Z,7.96
2023-02-18T16:51:17.974Z,7.95
2023-02-18T16:53:49.248Z,7.94
2023-02-18T16:56:22.052Z,7.96
2023-02-18T16:58:53.694Z,7.95
2023-02-18T17:01:29.022Z,7.95
2023-02-18T17:04:01.312Z,7.97
2023-02-18T17:06:33.753Z,7.99
2023-02-18T17:09:10.661Z,7.97
2023-02-18T17:11:41.833Z,7.96
2023-02-18T17:14:17.994Z,7.93
2023-02-18T17:16:50.372Z,7.90
2023-02-18T17:19:21.541Z,7.89
2023-02-18T17:21:52.547Z,7.87
2023-02-18T17:24:23.656Z,7.84
2023-02-18T17:26:54.649Z,7.80
2023-02-18T17:29:25.786Z,7.77
2023-02-18T17:31:57.993Z,7.75
2023-02-18T17:34:31.197Z,7.74
2023-02-18T17:37:02.629Z,7.72
2023-02-18T17:39:33.759Z,7.69
2023-02-18T17:42:03.218Z,7.67
2023-02-18T17:44:34.569Z,7.64
2023-02-18T17:47:06.088Z,7.65
2023-02-18T17:49:37.337Z,7.67
2023-02-18T17:52:13.929Z,7.67
2023-02-18T17:54:44.888Z,7.71
2023-02-18T17:57:14.437Z,7.74
2023-02-18T17:59:45.821Z,7.77
2023-02-18T18:02:28.696Z,7.79
2023-02-18T18:04:59.648Z,7.83
2023-02-18T18:07:30.622Z,7.88
2023-02-18T18:10:01.949Z,7.92
2023-02-18T18:12:33.624Z,7.93
2023-02-18T18:15:08.021Z,7.94
2023-02-18T18:17:39.581Z,7.95
2023-02-18T18:20:12.491Z,7.95
2023-02-18T18:22:43.963Z,7.96
2023-02-18T18:25:20.936Z,7.95
2023-02-18T18:27:53.038Z,7.97
2023-02-18T18:30:27.224Z,8.00
2023-02-18T18:32:58.797Z,8.02
2023-02-18T18:35:32.156Z,8.04
2023-02-18T18:38:03.854Z,8.05
2023-02-18T18:40:35.892Z,8.06
2023-02-18T18:43:07.427Z,8.08
2023-02-18T18:45:39.683Z,8.08
2023-02-18T18:48:11.234Z,8.07
2023-02-18T18:50:42.891Z,8.06
2023-02-18T18:53:20.531Z,8.04
2023-02-18T18:55:53.085Z,7.99
2023-02-18T18:58:24.871Z,7.96
2023-02-18T19:00:58.235Z,7.92
2023-02-18T19:03:30.958Z,7.88
2023-02-18T19:06:02.554Z,7.86
2023-02-18T19:08:34.417Z,7.83
2023-02-18T19:11:07.149Z,7.80
2023-02-18T19:13:38.057Z,7.76
2023-02-18T19:16:14.173Z,7.74
2023-02-18T19:18:45.158Z,7.72
2023-02-18T19:21:16.903Z,7.71
2023-02-18T19:23:48.113Z,7.69
2023-02-18T19:26:19.160Z,7.68
2023-02-18T19:28:50.478Z,7.69
2023-02-18T19:31:24.443Z,7.67
2023-02-18T19:33:55.708Z,7.65
2023-02-18T19:36:24.981Z,7.65
2023-02-18T19:38:55.838Z,7.62
2023-02-18T19:41:27.173Z,7.61
2023-02-18T19:43:58.268Z,7.60
2023-02-18T19:46:27.695Z,7.61
2023-02-18T19:48:59.014Z,7.59
2023-02-18T19:51:30.141Z,7.57
2023-02-18T19:54:02.030Z,7.55
2023-02-18T19:56:34.323Z,7.53
2023-02-18T19:59:03.745Z,7.52
2023-02-18T20:01:34.980Z,7.48
2023-02-18T20:04:04.385Z,7.45
2023-02-18T20:06:35.408Z,7.40
2023-02-18T20:09:06.690Z,7.37
2023-02-18T20:11:37.844Z,7.35
2023-02-18T20:14:11.834Z,7.31
2023-02-18T20:16:43.302Z,7.31
2023-02-18T20:19:14.464Z,7.29
2023-02-18T20:21:45.577Z,7.29
2023-02-18T20:24:16.924Z,7.29
2023-02-18T20:26:48.223Z,7.30
2023-02-18T20:29:22.174Z,7.31
2023-02-18T20:31:53.735Z,7.31
2023-02-18T20:34:25.169Z,7.30
2023-02-18T20:36:54.480Z,7.28
2023-02-18T20:39:26.052Z,7.22
2023-02-18T20:42:00.965Z,7.21
2023-02-18T20:44:34.098Z,7.21
2023-02-18T20:47:04.949Z,7.19
2023-02-18T20:49:36.285Z,7.17
2023-02-18T20:52:07.548Z,7.16
2023-02-18T20:54:38.682Z,7.15
2023-02-18T20:57:10.047Z,7.14
2023-02-18T20:59:41.145Z,7.14
2023-02-18T21:02:14.678Z,7.15
2023-02-18T21:04:46.136Z,7.16
2023-02-18T21:07:17.529Z,7.18
2023-02-18T21:09:47.143Z,7.19
2023-02-18T21:12:18.197Z,7.17
2023-02-18T21:14:49.740Z,7.17
2023-02-18T21:17:22.137Z,7.16
2023-02-18T21:19:53.228Z,7.13
2023-02-18T21:22:24.488Z,7.11
2023-02-18T21:24:54.022Z,7.09
2023-02-18T21:27:25.068Z,7.03
2023-02-18T21:29:56.598Z,7.00
2023-02-18T21:32:27.773Z,6.97
2023-02-18T21:34:58.746Z,6.96
2023-02-18T21:37:29.668Z,6.96
2023-02-18T21:40:00.404Z,6.97
2023-02-18T21:42:31.704Z,6.96
2023-02-18T21:45:04.445Z,6.97
2023-02-18T21:47:36.820Z,6.99
2023-02-18T21:50:08.867Z,6.99
2023-02-18T21:52:40.270Z,7.00
2023-02-18T21:55:12.230Z,7.01
2023-02-18T21:57:46.540Z,7.02
2023-02-18T22:00:20.904Z,7.03
2023-02-18T22:02:52.634Z,7.02
2023-02-18T22:05:26.087Z,7.02
2023-02-18T22:07:57.253Z,7.03
2023-02-18T22:10:26.474Z,7.03
2023-02-18T22:12:57.382Z,7.01
2023-02-18T22:15:28.778Z,7.01
2023-02-18T22:18:00.014Z,7.01
2023-02-18T22:20:30.906Z,7.01
2023-02-18T22:23:01.878Z,7.00
2023-02-18T22:25:31.262Z,6.99
2023-02-18T22:28:02.462Z,6.97
2023-02-18T22:30:31.975Z,6.96
2023-02-18T22:33:01.689Z,6.95
2023-02-18T22:35:33.722Z,6.94
2023-02-18T22:38:04.778Z,6.93
2023-02-18T22:40:34.485Z,6.94
2023-02-18T22:43:05.737Z,6.93
2023-02-18T22:45:38.387Z,6.95
2023-02-18T22:48:09.769Z,6.95
2023-02-18T22:50:40.689Z,6.98
2023-02-18T22:53:10.193Z,7.00
2023-02-18T22:55:41.145Z,7.00
2023-02-18T22:58:12.492Z,7.01
2023-02-18T23:00:43.611Z,7.02
2023-02-18T23:03:14.880Z,7.02
2023-02-18T23:05:45.402Z,7.04
2023-02-18T23:08:16.310Z,7.04
2023-02-18T23:10:45.990Z,7.05
2023-02-18T23:13:16.884Z,7.01
2023-02-18T23:15:56.335Z,7.01
2023-02-18T23:18:27.677Z,6.99
2023-02-18T23:21:21.478Z,6.99
2023-02-18T23:23:54.907Z,6.98
2023-02-18T23:26:26.960Z,6.98
2023-02-18T23:28:58.094Z,6.99
2023-02-18T23:31:28.604Z,6.99
2023-02-18T23:34:02.105Z,6.98
2023-02-18T23:36:35.497Z,6.99
2023-02-18T23:39:09.502Z,7.01
2023-02-18T23:41:40.780Z,7.02
2023-02-18T23:44:14.775Z,7.01
2023-02-18T23:46:46.685Z,6.99
2023-02-18T23:49:19.631Z,6.97
2023-02-18T23:51:51.358Z,6.95
2023-02-18T23:54:22.764Z,6.94
2023-02-18T23:56:54.010Z,6.91
2023-02-18T23:59:23.498Z,6.90
